Mandalgovi, Mongolia
Current Conditions -  °F | °C
As of 1:00 AM on Saturday 20 Dec 2014 (Local Time) from ZMUB Reporting Station
Clear Clear  
Wind Chill: -20°   Ceiling: Unl
Heat Index: -20°   Visibility: 6mi
Dew Point: -27°   Wind: 2mph
Humidity: 69%   Direction: NA
Pressure: 30.27"   Gusts: NA
Location:  45.77°N, 106.26°E
Report Text: ZMUB 191700Z VRB01MPS CAVOK M29/M33 Q1025 NOSIG RMK QFE660.9 71
Loading
Personal Weather Stations






























Interactive Weather Map New forecast layout! Learn more

10-Day Weather Forecast

Advertisements
Track Severe Weather on mobile